sensor_id;sensor_type;location;lat;lon;timestamp;temperature;humidity
59309;DHT22;48433;53.016;-2.260;2023-04-24T00:02:23;8.10;99.90
59309;DHT22;48433;53.016;-2.260;2023-04-24T00:04:51;8.10;99.90
59309;DHT22;48433;53.016;-2.260;2023-04-24T00:07:19;8.10;99.90
59309;DHT22;48433;53.016;-2.260;2023-04-24T00:09:47;8.10;99.90
59309;DHT22;48433;53.016;-2.260;2023-04-24T00:12:15;8.20;99.90
59309;DHT22;48433;53.016;-2.260;2023-04-24T00:14:42;8.20;99.90
59309;DHT22;48433;53.016;-2.260;2023-04-24T00:17:10;8.20;99.90
59309;DHT22;48433;53.016;-2.260;2023-04-24T00:19:37;8.20;99.90
59309;DHT22;48433;53.016;-2.260;2023-04-24T00:22:05;8.20;99.90
59309;DHT22;48433;53.016;-2.260;2023-04-24T00:24:32;8.20;99.90
59309;DHT22;48433;53.016;-2.260;2023-04-24T00:27:00;8.20;99.90
59309;DHT22;48433;53.016;-2.260;2023-04-24T00:29:28;8.30;99.90
59309;DHT22;48433;53.016;-2.260;2023-04-24T00:31:56;8.20;99.90
59309;DHT22;48433;53.016;-2.260;2023-04-24T00:34:23;8.30;99.90
59309;DHT22;48433;53.016;-2.260;2023-04-24T00:36:51;8.30;99.90
59309;DHT22;48433;53.016;-2.260;2023-04-24T00:39:19;8.30;99.90
59309;DHT22;48433;53.016;-2.260;2023-04-24T00:41:47;8.30;99.90
59309;DHT22;48433;53.016;-2.260;2023-04-24T00:44:15;8.30;99.90
59309;DHT22;48433;53.016;-2.260;2023-04-24T00:46:43;8.30;99.90
59309;DHT22;48433;53.016;-2.260;2023-04-24T00:49:11;8.30;99.90
59309;DHT22;48433;53.016;-2.260;2023-04-24T00:51:40;8.20;99.90
59309;DHT22;48433;53.016;-2.260;2023-04-24T00:54:08;8.20;99.90
59309;DHT22;48433;53.016;-2.260;2023-04-24T00:56:35;8.20;99.90
59309;DHT22;48433;53.016;-2.260;2023-04-24T00:59:04;8.10;99.90
59309;DHT22;48433;53.016;-2.260;2023-04-24T01:01:32;8.10;99.90
59309;DHT22;48433;53.016;-2.260;2023-04-24T01:04:00;8.10;99.90
59309;DHT22;48433;53.016;-2.260;2023-04-24T01:06:29;8.10;99.90
59309;DHT22;48433;53.016;-2.260;2023-04-24T01:08:59;8.10;99.90
59309;DHT22;48433;53.016;-2.260;2023-04-24T01:11:30;8.00;99.90
59309;DHT22;48433;53.016;-2.260;2023-04-24T01:13:57;8.00;99.90
59309;DHT22;48433;53.016;-2.260;2023-04-24T01:16:26;8.00;99.90
59309;DHT22;48433;53.016;-2.260;2023-04-24T01:18:54;7.90;99.90
59309;DHT22;48433;53.016;-2.260;2023-04-24T01:21:23;7.90;99.90
59309;DHT22;48433;53.016;-2.260;2023-04-24T01:23:55;7.90;99.90
59309;DHT22;48433;53.016;-2.260;2023-04-24T01:26:23;7.90;99.90
59309;DHT22;48433;53.016;-2.260;2023-04-24T01:28:53;7.90;99.90
59309;DHT22;48433;53.016;-2.260;2023-04-24T01:31:20;7.80;99.90
59309;DHT22;48433;53.016;-2.260;2023-04-24T01:33:49;7.80;99.90
59309;DHT22;48433;53.016;-2.260;2023-04-24T01:36:17;7.80;99.90
59309;DHT22;48433;53.016;-2.260;2023-04-24T01:38:45;7.80;99.90
59309;DHT22;48433;53.016;-2.260;2023-04-24T01:41:13;7.70;99.90
59309;DHT22;48433;53.016;-2.260;2023-04-24T01:43:40;7.60;99.90
59309;DHT22;48433;53.016;-2.260;2023-04-24T01:46:08;7.60;99.90
59309;DHT22;48433;53.016;-2.260;2023-04-24T01:48:36;7.60;99.90
59309;DHT22;48433;53.016;-2.260;2023-04-24T01:51:04;7.50;99.90
59309;DHT22;48433;53.016;-2.260;2023-04-24T01:53:31;7.50;99.90
59309;DHT22;48433;53.016;-2.260;2023-04-24T01:56:00;7.40;99.90
59309;DHT22;48433;53.016;-2.260;2023-04-24T01:58:29;7.30;99.90
59309;DHT22;48433;53.016;-2.260;2023-04-24T02:00:57;7.30;99.90
59309;DHT22;48433;53.016;-2.260;2023-04-24T02:03:26;7.20;99.90
59309;DHT22;48433;53.016;-2.260;2023-04-24T02:05:57;7.20;99.90
59309;DHT22;48433;53.016;-2.260;2023-04-24T02:08:24;7.10;99.90
59309;DHT22;48433;53.016;-2.260;2023-04-24T02:10:52;7.10;99.90
59309;DHT22;48433;53.016;-2.260;2023-04-24T02:13:19;7.00;99.90
59309;DHT22;48433;53.016;-2.260;2023-04-24T02:15:47;7.00;99.90
59309;DHT22;48433;53.016;-2.260;2023-04-24T02:18:15;7.10;99.90
59309;DHT22;48433;53.016;-2.260;2023-04-24T02:20:42;7.00;99.90
59309;DHT22;48433;53.016;-2.260;2023-04-24T02:23:10;7.00;99.90
59309;DHT22;48433;53.016;-2.260;2023-04-24T02:25:38;7.10;99.90
59309;DHT22;48433;53.016;-2.260;2023-04-24T02:28:05;7.10;99.90
59309;DHT22;48433;53.016;-2.260;2023-04-24T02:30:34;7.00;99.90
59309;DHT22;48433;53.016;-2.260;2023-04-24T02:33:02;7.00;99.90
59309;DHT22;48433;53.016;-2.260;2023-04-24T02:35:30;7.00;99.90
59309;DHT22;48433;53.016;-2.260;2023-04-24T02:37:58;7.00;99.90
59309;DHT22;48433;53.016;-2.260;2023-04-24T02:40:26;6.90;99.90
59309;DHT22;48433;53.016;-2.260;2023-04-24T02:42:53;6.90;99.90
59309;DHT22;48433;53.016;-2.260;2023-04-24T02:45:21;6.90;99.90
59309;DHT22;48433;53.016;-2.260;2023-04-24T02:47:48;6.90;99.90
59309;DHT22;48433;53.016;-2.260;2023-04-24T02:50:16;6.80;99.90
59309;DHT22;48433;53.016;-2.260;2023-04-24T02:52:44;6.80;99.90
59309;DHT22;48433;53.016;-2.260;2023-04-24T02:55:13;6.80;99.90
59309;DHT22;48433;53.016;-2.260;2023-04-24T02:57:40;6.80;99.90
59309;DHT22;48433;53.016;-2.260;2023-04-24T03:00:08;6.80;99.90
59309;DHT22;48433;53.016;-2.260;2023-04-24T03:02:36;6.80;99.90
59309;DHT22;48433;53.016;-2.260;2023-04-24T03:05:04;6.80;99.90
59309;DHT22;48433;53.016;-2.260;2023-04-24T03:07:32;6.80;99.90
59309;DHT22;48433;53.016;-2.260;2023-04-24T03:10:00;6.80;99.90
59309;DHT22;48433;53.016;-2.260;2023-04-24T03:12:27;6.80;99.90
59309;DHT22;48433;53.016;-2.260;2023-04-24T03:14:55;6.80;99.90
59309;DHT22;48433;53.016;-2.260;2023-04-24T03:17:22;6.80;99.90
59309;DHT22;48433;53.016;-2.260;2023-04-24T03:19:50;6.80;99.90
59309;DHT22;48433;53.016;-2.260;2023-04-24T03:22:18;6.80;99.90
59309;DHT22;48433;53.016;-2.260;2023-04-24T03:24:46;6.70;99.90
59309;DHT22;48433;53.016;-2.260;2023-04-24T03:27:17;6.70;99.90
59309;DHT22;48433;53.016;-2.260;2023-04-24T03:29:54;6.70;99.90
59309;DHT22;48433;53.016;-2.260;2023-04-24T03:32:29;6.70;99.90
59309;DHT22;48433;53.016;-2.260;2023-04-24T03:35:00;6.70;99.90
59309;DHT22;48433;53.016;-2.260;2023-04-24T03:37:28;6.70;99.90
59309;DHT22;48433;53.016;-2.260;2023-04-24T03:40:09;6.70;99.90
59309;DHT22;48433;53.016;-2.260;2023-04-24T03:42:38;6.70;99.90
59309;DHT22;48433;53.016;-2.260;2023-04-24T03:45:06;6.70;99.90
59309;DHT22;48433;53.016;-2.260;2023-04-24T03:47:37;6.70;99.90
59309;DHT22;48433;53.016;-2.260;2023-04-24T03:50:06;6.70;99.90
59309;DHT22;48433;53.016;-2.260;2023-04-24T03:52:34;6.70;99.90
59309;DHT22;48433;53.016;-2.260;2023-04-24T03:55:03;6.70;99.90
59309;DHT22;48433;53.016;-2.260;2023-04-24T03:57:36;6.70;99.90
59309;DHT22;48433;53.016;-2.260;2023-04-24T04:00:13;6.70;99.90
59309;DHT22;48433;53.016;-2.260;2023-04-24T04:02:46;6.70;99.90
59309;DHT22;48433;53.016;-2.260;2023-04-24T04:05:14;6.70;99.90
59309;DHT22;48433;53.016;-2.260;2023-04-24T04:07:42;6.70;99.90
59309;DHT22;48433;53.016;-2.260;2023-04-24T04:10:10;6.70;99.90
59309;DHT22;48433;53.016;-2.260;2023-04-24T04:12:37;6.70;99.90
59309;DHT22;48433;53.016;-2.260;2023-04-24T04:15:05;6.70;99.90
59309;DHT22;48433;53.016;-2.260;2023-04-24T04:17:35;6.60;99.90
59309;DHT22;48433;53.016;-2.260;2023-04-24T04:20:06;6.60;99.90
59309;DHT22;48433;53.016;-2.260;2023-04-24T04:22:38;6.60;99.90
59309;DHT22;48433;53.016;-2.260;2023-04-24T04:25:11;6.60;99.90
59309;DHT22;48433;53.016;-2.260;2023-04-24T04:27:41;6.60;99.90
59309;DHT22;48433;53.016;-2.260;2023-04-24T04:30:11;6.70;99.90
59309;DHT22;48433;53.016;-2.260;2023-04-24T04:32:49;6.60;99.90
59309;DHT22;48433;53.016;-2.260;2023-04-24T04:35:17;6.60;99.90
59309;DHT22;48433;53.016;-2.260;2023-04-24T04:37:45;6.60;99.90
59309;DHT22;48433;53.016;-2.260;2023-04-24T04:40:29;6.60;99.90
59309;DHT22;48433;53.016;-2.260;2023-04-24T04:43:02;6.60;99.90
59309;DHT22;48433;53.016;-2.260;2023-04-24T04:45:35;6.60;99.90
59309;DHT22;48433;53.016;-2.260;2023-04-24T04:48:27;6.60;99.90
59309;DHT22;48433;53.016;-2.260;2023-04-24T04:50:57;6.60;99.90
59309;DHT22;48433;53.016;-2.260;2023-04-24T04:53:26;6.60;99.90
59309;DHT22;48433;53.016;-2.260;2023-04-24T04:55:54;6.60;99.90
59309;DHT22;48433;53.016;-2.260;2023-04-24T04:58:27;6.60;99.90
59309;DHT22;48433;53.016;-2.260;2023-04-24T05:00:58;6.60;99.90
59309;DHT22;48433;53.016;-2.260;2023-04-24T05:03:38;6.60;99.90
59309;DHT22;48433;53.016;-2.260;2023-04-24T05:06:10;6.50;99.90
59309;DHT22;48433;53.016;-2.260;2023-04-24T05:08:39;6.50;99.90
59309;DHT22;48433;53.016;-2.260;2023-04-24T05:11:17;6.50;99.90
59309;DHT22;48433;53.016;-2.260;2023-04-24T05:13:44;6.50;99.90
59309;DHT22;48433;53.016;-2.260;2023-04-24T05:16:17;6.50;99.90
59309;DHT22;48433;53.016;-2.260;2023-04-24T05:18:45;6.50;99.90
59309;DHT22;48433;53.016;-2.260;2023-04-24T05:21:16;6.50;99.90
59309;DHT22;48433;53.016;-2.260;2023-04-24T05:23:47;6.50;99.90
59309;DHT22;48433;53.016;-2.260;2023-04-24T05:26:22;6.50;99.90
59309;DHT22;48433;53.016;-2.260;2023-04-24T05:28:50;6.60;99.90
59309;DHT22;48433;53.016;-2.260;2023-04-24T05:31:18;6.60;99.90
59309;DHT22;48433;53.016;-2.260;2023-04-24T05:33:45;6.60;99.90
59309;DHT22;48433;53.016;-2.260;2023-04-24T05:36:13;6.60;99.90
59309;DHT22;48433;53.016;-2.260;2023-04-24T05:38:41;6.60;99.90
59309;DHT22;48433;53.016;-2.260;2023-04-24T05:41:09;6.70;99.90
59309;DHT22;48433;53.016;-2.260;2023-04-24T05:43:36;6.70;99.90
59309;DHT22;48433;53.016;-2.260;2023-04-24T05:46:04;6.70;99.90
59309;DHT22;48433;53.016;-2.260;2023-04-24T05:48:31;6.70;99.90
59309;DHT22;48433;53.016;-2.260;2023-04-24T05:51:02;6.70;99.90
59309;DHT22;48433;53.016;-2.260;2023-04-24T05:53:30;6.70;99.90
59309;DHT22;48433;53.016;-2.260;2023-04-24T05:55:58;6.80;99.90
59309;DHT22;48433;53.016;-2.260;2023-04-24T05:58:26;6.80;99.90
59309;DHT22;48433;53.016;-2.260;2023-04-24T06:00:54;6.80;99.90
59309;DHT22;48433;53.016;-2.260;2023-04-24T06:03:22;6.90;99.90
59309;DHT22;48433;53.016;-2.260;2023-04-24T06:05:50;6.90;99.90
59309;DHT22;48433;53.016;-2.260;2023-04-24T06:08:19;7.00;99.90
59309;DHT22;48433;53.016;-2.260;2023-04-24T06:10:48;7.00;99.90
59309;DHT22;48433;53.016;-2.260;2023-04-24T06:13:18;7.00;99.90
59309;DHT22;48433;53.016;-2.260;2023-04-24T06:16:05;7.00;99.90
59309;DHT22;48433;53.016;-2.260;2023-04-24T06:18:36;7.10;99.90
59309;DHT22;48433;53.016;-2.260;2023-04-24T06:21:04;7.10;99.90
59309;DHT22;48433;53.016;-2.260;2023-04-24T06:23:32;7.10;99.90
59309;DHT22;48433;53.016;-2.260;2023-04-24T06:26:00;7.20;99.90
59309;DHT22;48433;53.016;-2.260;2023-04-24T06:28:28;7.20;99.90
59309;DHT22;48433;53.016;-2.260;2023-04-24T06:30:55;7.30;99.90
59309;DHT22;48433;53.016;-2.260;2023-04-24T06:33:23;7.30;99.90
59309;DHT22;48433;53.016;-2.260;2023-04-24T06:35:52;7.40;99.90
59309;DHT22;48433;53.016;-2.260;2023-04-24T06:38:20;7.50;99.90
59309;DHT22;48433;53.016;-2.260;2023-04-24T06:40:47;7.50;99.90
59309;DHT22;48433;53.016;-2.260;2023-04-24T06:43:15;7.60;99.90
59309;DHT22;48433;53.016;-2.260;2023-04-24T06:45:42;7.60;99.90
59309;DHT22;48433;53.016;-2.260;2023-04-24T06:48:11;7.60;99.90
59309;DHT22;48433;53.016;-2.260;2023-04-24T06:50:39;7.60;99.90
59309;DHT22;48433;53.016;-2.260;2023-04-24T06:53:06;7.60;99.90
59309;DHT22;48433;53.016;-2.260;2023-04-24T06:55:35;7.60;99.90
59309;DHT22;48433;53.016;-2.260;2023-04-24T06:58:03;7.60;99.90
59309;DHT22;48433;53.016;-2.260;2023-04-24T07:00:30;7.70;99.90
59309;DHT22;48433;53.016;-2.260;2023-04-24T07:02:58;7.80;99.90
59309;DHT22;48433;53.016;-2.260;2023-04-24T07:05:26;7.80;99.90
59309;DHT22;48433;53.016;-2.260;2023-04-24T07:07:54;7.80;99.90
59309;DHT22;48433;53.016;-2.260;2023-04-24T07:10:21;7.90;99.90
59309;DHT22;48433;53.016;-2.260;2023-04-24T07:12:49;8.00;99.90
59309;DHT22;48433;53.016;-2.260;2023-04-24T07:15:16;8.00;99.90
59309;DHT22;48433;53.016;-2.260;2023-04-24T07:17:44;8.00;99.90
59309;DHT22;48433;53.016;-2.260;2023-04-24T07:20:11;8.00;99.90
59309;DHT22;48433;53.016;-2.260;2023-04-24T07:22:41;8.00;99.90
59309;DHT22;48433;53.016;-2.260;2023-04-24T07:25:09;8.10;99.90
59309;DHT22;48433;53.016;-2.260;2023-04-24T07:27:36;8.10;99.90
59309;DHT22;48433;53.016;-2.260;2023-04-24T07:30:05;8.10;99.90
59309;DHT22;48433;53.016;-2.260;2023-04-24T07:32:32;8.20;99.90
59309;DHT22;48433;53.016;-2.260;2023-04-24T07:35:00;8.30;99.90
59309;DHT22;48433;53.016;-2.260;2023-04-24T07:37:28;8.30;99.90
59309;DHT22;48433;53.016;-2.260;2023-04-24T07:39:56;8.50;99.90
59309;DHT22;48433;53.016;-2.260;2023-04-24T07:42:24;8.50;99.90
59309;DHT22;48433;53.016;-2.260;2023-04-24T07:44:51;8.60;99.90
59309;DHT22;48433;53.016;-2.260;2023-04-24T07:47:19;8.60;99.90
59309;DHT22;48433;53.016;-2.260;2023-04-24T07:49:46;8.60;99.90
59309;DHT22;48433;53.016;-2.260;2023-04-24T07:52:14;8.60;99.90
59309;DHT22;48433;53.016;-2.260;2023-04-24T07:54:42;8.70;99.90
59309;DHT22;48433;53.016;-2.260;2023-04-24T07:57:10;8.70;99.90
59309;DHT22;48433;53.016;-2.260;2023-04-24T07:59:38;8.80;99.90
59309;DHT22;48433;53.016;-2.260;2023-04-24T08:02:06;8.80;99.90
59309;DHT22;48433;53.016;-2.260;2023-04-24T08:04:33;8.90;99.90
59309;DHT22;48433;53.016;-2.260;2023-04-24T08:07:01;9.00;99.90
59309;DHT22;48433;53.016;-2.260;2023-04-24T08:09:29;9.20;99.90
59309;DHT22;48433;53.016;-2.260;2023-04-24T08:11:56;9.30;99.90
59309;DHT22;48433;53.016;-2.260;2023-04-24T08:14:24;9.50;99.90
59309;DHT22;48433;53.016;-2.260;2023-04-24T08:16:54;9.50;99.90
59309;DHT22;48433;53.016;-2.260;2023-04-24T08:19:23;9.60;99.90
59309;DHT22;48433;53.016;-2.260;2023-04-24T08:21:50;9.60;99.90
59309;DHT22;48433;53.016;-2.260;2023-04-24T08:24:18;9.70;99.90
59309;DHT22;48433;53.016;-2.260;2023-04-24T08:26:45;9.70;99.90
59309;DHT22;48433;53.016;-2.260;2023-04-24T08:29:13;9.80;99.90
59309;DHT22;48433;53.016;-2.260;2023-04-24T08:31:40;9.70;99.90
59309;DHT22;48433;53.016;-2.260;2023-04-24T08:34:09;9.70;99.90
59309;DHT22;48433;53.016;-2.260;2023-04-24T08:36:37;9.70;99.90
59309;DHT22;48433;53.016;-2.260;2023-04-24T08:39:14;9.70;99.90
59309;DHT22;48433;53.016;-2.260;2023-04-24T08:41:42;9.80;99.90
59309;DHT22;48433;53.016;-2.260;2023-04-24T08:44:11;10.00;99.90
59309;DHT22;48433;53.016;-2.260;2023-04-24T08:46:40;10.00;99.90
59309;DHT22;48433;53.016;-2.260;2023-04-24T08:49:08;10.10;99.90
59309;DHT22;48433;53.016;-2.260;2023-04-24T08:51:37;10.10;99.90
59309;DHT22;48433;53.016;-2.260;2023-04-24T08:54:05;10.30;99.90
59309;DHT22;48433;53.016;-2.260;2023-04-24T08:56:37;10.30;99.90
59309;DHT22;48433;53.016;-2.260;2023-04-24T08:59:06;10.50;99.90
59309;DHT22;48433;53.016;-2.260;2023-04-24T09:01:34;10.60;99.90
59309;DHT22;48433;53.016;-2.260;2023-04-24T09:04:06;10.80;99.90
59309;DHT22;48433;53.016;-2.260;2023-04-24T09:06:34;10.80;99.90
59309;DHT22;48433;53.016;-2.260;2023-04-24T09:09:03;10.90;99.90
59309;DHT22;48433;53.016;-2.260;2023-04-24T09:11:31;11.00;99.90
59309;DHT22;48433;53.016;-2.260;2023-04-24T09:16:31;11.10;99.90
59309;DHT22;48433;53.016;-2.260;2023-04-24T09:19:03;11.20;99.90
59309;DHT22;48433;53.016;-2.260;2023-04-24T09:21:34;11.20;99.90
59309;DHT22;48433;53.016;-2.260;2023-04-24T09:24:07;11.30;99.90
59309;DHT22;48433;53.016;-2.260;2023-04-24T09:26:36;11.30;99.90
59309;DHT22;48433;53.016;-2.260;2023-04-24T09:29:04;11.40;99.90
59309;DHT22;48433;53.016;-2.260;2023-04-24T09:31:31;11.50;99.90
59309;DHT22;48433;53.016;-2.260;2023-04-24T09:36:37;11.80;99.90
59309;DHT22;48433;53.016;-2.260;2023-04-24T09:39:06;12.00;99.90
59309;DHT22;48433;53.016;-2.260;2023-04-24T09:41:50;12.20;99.90
59309;DHT22;48433;53.016;-2.260;2023-04-24T09:44:20;12.30;99.90
59309;DHT22;48433;53.016;-2.260;2023-04-24T09:46:58;12.30;99.90
59309;DHT22;48433;53.016;-2.260;2023-04-24T09:49:28;12.30;99.90
59309;DHT22;48433;53.016;-2.260;2023-04-24T09:52:06;12.40;99.90
59309;DHT22;48433;53.016;-2.260;2023-04-24T09:54:35;12.80;99.90
59309;DHT22;48433;53.016;-2.260;2023-04-24T09:57:04;12.90;99.90
59309;DHT22;48433;53.016;-2.260;2023-04-24T09:59:32;13.20;99.90
59309;DHT22;48433;53.016;-2.260;2023-04-24T10:02:03;13.60;99.90
59309;DHT22;48433;53.016;-2.260;2023-04-24T10:04:30;14.20;99.90
59309;DHT22;48433;53.016;-2.260;2023-04-24T10:06:58;14.30;99.90
59309;DHT22;48433;53.016;-2.260;2023-04-24T10:09:27;14.70;99.90
59309;DHT22;48433;53.016;-2.260;2023-04-24T10:11:54;15.10;99.90
59309;DHT22;48433;53.016;-2.260;2023-04-24T10:14:24;15.60;98.80
59309;DHT22;48433;53.016;-2.260;2023-04-24T10:16:55;15.70;99.40
59309;DHT22;48433;53.016;-2.260;2023-04-24T10:19:26;16.00;98.60
59309;DHT22;48433;53.016;-2.260;2023-04-24T10:21:54;16.30;97.70
59309;DHT22;48433;53.016;-2.260;2023-04-24T10:24:23;16.60;94.30
59309;DHT22;48433;53.016;-2.260;2023-04-24T10:26:51;16.60;95.20
59309;DHT22;48433;53.016;-2.260;2023-04-24T10:29:19;16.60;93.70
59309;DHT22;48433;53.016;-2.260;2023-04-24T10:31:47;16.40;92.80
59309;DHT22;48433;53.016;-2.260;2023-04-24T10:34:16;15.80;91.90
59309;DHT22;48433;53.016;-2.260;2023-04-24T10:36:49;15.80;92.20
59309;DHT22;48433;53.016;-2.260;2023-04-24T10:39:18;15.50;92.50
59309;DHT22;48433;53.016;-2.260;2023-04-24T10:41:54;15.50;93.10
59309;DHT22;48433;53.016;-2.260;2023-04-24T10:44:25;15.50;91.60
59309;DHT22;48433;53.016;-2.260;2023-04-24T10:46:55;15.50;92.10
59309;DHT22;48433;53.016;-2.260;2023-04-24T10:49:30;15.40;91.70
59309;DHT22;48433;53.016;-2.260;2023-04-24T10:52:03;15.80;92.60
59309;DHT22;48433;53.016;-2.260;2023-04-24T10:59:51;17.80;87.30
59309;DHT22;48433;53.016;-2.260;2023-04-24T11:02:36;18.10;87.30
59309;DHT22;48433;53.016;-2.260;2023-04-24T11:05:04;19.50;80.80
59309;DHT22;48433;53.016;-2.260;2023-04-24T11:10:54;20.70;71.20
59309;DHT22;48433;53.016;-2.260;2023-04-24T11:13:23;20.70;64.10
59309;DHT22;48433;53.016;-2.260;2023-04-24T11:19:02;19.20;60.40
59309;DHT22;48433;53.016;-2.260;2023-04-24T11:21:43;18.80;61.90
59309;DHT22;48433;53.016;-2.260;2023-04-24T11:24:28;17.80;59.80
59309;DHT22;48433;53.016;-2.260;2023-04-24T11:27:09;17.80;59.90
59309;DHT22;48433;53.016;-2.260;2023-04-24T11:32:41;17.30;60.10
59309;DHT22;48433;53.016;-2.260;2023-04-24T11:35:20;17.10;58.10
59309;DHT22;48433;53.016;-2.260;2023-04-24T11:37:50;16.90;59.50
59309;DHT22;48433;53.016;-2.260;2023-04-24T11:40:22;16.50;60.00
59309;DHT22;48433;53.016;-2.260;2023-04-24T11:42:51;16.00;60.20
59309;DHT22;48433;53.016;-2.260;2023-04-24T11:45:23;15.40;61.50
59309;DHT22;48433;53.016;-2.260;2023-04-24T11:47:51;15.20;62.40
59309;DHT22;48433;53.016;-2.260;2023-04-24T11:50:21;14.90;62.30
59309;DHT22;48433;53.016;-2.260;2023-04-24T11:52:50;14.50;63.40
59309;DHT22;48433;53.016;-2.260;2023-04-24T11:57:47;13.90;65.70
59309;DHT22;48433;53.016;-2.260;2023-04-24T12:00:29;13.70;66.20
59309;DHT22;48433;53.016;-2.260;2023-04-24T12:03:23;13.70;67.00
59309;DHT22;48433;53.016;-2.260;2023-04-24T12:05:51;13.60;66.90
59309;DHT22;48433;53.016;-2.260;2023-04-24T12:08:28;13.60;67.80
59309;DHT22;48433;53.016;-2.260;2023-04-24T12:10:56;13.70;68.90
59309;DHT22;48433;53.016;-2.260;2023-04-24T12:13:25;13.80;68.40
59309;DHT22;48433;53.016;-2.260;2023-04-24T12:15:53;13.70;68.10
59309;DHT22;48433;53.016;-2.260;2023-04-24T12:18:24;13.80;68.90
59309;DHT22;48433;53.016;-2.260;2023-04-24T12:20:52;13.70;69.30
59309;DHT22;48433;53.016;-2.260;2023-04-24T12:23:35;13.60;70.10
59309;DHT22;48433;53.016;-2.260;2023-04-24T12:26:04;13.70;68.90
59309;DHT22;48433;53.016;-2.260;2023-04-24T12:28:36;13.80;69.80
59309;DHT22;48433;53.016;-2.260;2023-04-24T12:31:06;14.00;70.00
59309;DHT22;48433;53.016;-2.260;2023-04-24T12:33:35;14.10;69.90
59309;DHT22;48433;53.016;-2.260;2023-04-24T12:36:03;14.20;68.80
59309;DHT22;48433;53.016;-2.260;2023-04-24T12:38:30;14.20;69.80
59309;DHT22;48433;53.016;-2.260;2023-04-24T12:41:11;14.10;69.10
59309;DHT22;48433;53.016;-2.260;2023-04-24T12:43:53;13.90;69.10
59309;DHT22;48433;53.016;-2.260;2023-04-24T12:46:22;13.70;69.30
59309;DHT22;48433;53.016;-2.260;2023-04-24T12:48:49;13.60;70.80
59309;DHT22;48433;53.016;-2.260;2023-04-24T12:51:17;13.50;71.50
59309;DHT22;48433;53.016;-2.260;2023-04-24T12:53:44;13.50;72.50
59309;DHT22;48433;53.016;-2.260;2023-04-24T12:56:12;13.40;71.50
59309;DHT22;48433;53.016;-2.260;2023-04-24T12:58:40;13.40;72.20
59309;DHT22;48433;53.016;-2.260;2023-04-24T13:01:07;13.30;72.50
59309;DHT22;48433;53.016;-2.260;2023-04-24T13:03:36;13.10;72.50
59309;DHT22;48433;53.016;-2.260;2023-04-24T13:06:04;13.00;71.90
59309;DHT22;48433;53.016;-2.260;2023-04-24T13:08:31;12.90;73.10
59309;DHT22;48433;53.016;-2.260;2023-04-24T13:10:59;12.90;73.70
59309;DHT22;48433;53.016;-2.260;2023-04-24T13:13:27;12.80;74.00
59309;DHT22;48433;53.016;-2.260;2023-04-24T13:15:54;12.90;71.70
59309;DHT22;48433;53.016;-2.260;2023-04-24T13:18:22;13.00;72.00
59309;DHT22;48433;53.016;-2.260;2023-04-24T13:20:49;13.10;72.20
59309;DHT22;48433;53.016;-2.260;2023-04-24T13:23:17;13.20;73.00
59309;DHT22;48433;53.016;-2.260;2023-04-24T13:25:45;13.50;71.40
59309;DHT22;48433;53.016;-2.260;2023-04-24T13:28:12;13.60;72.00
59309;DHT22;48433;53.016;-2.260;2023-04-24T13:30:40;13.70;71.20
59309;DHT22;48433;53.016;-2.260;2023-04-24T13:33:08;13.70;70.30
59309;DHT22;48433;53.016;-2.260;2023-04-24T13:35:35;13.70;69.10
59309;DHT22;48433;53.016;-2.260;2023-04-24T13:38:03;13.70;70.20
59309;DHT22;48433;53.016;-2.260;2023-04-24T13:40:33;13.80;70.50
59309;DHT22;48433;53.016;-2.260;2023-04-24T13:43:01;13.80;69.60
59309;DHT22;48433;53.016;-2.260;2023-04-24T13:45:29;13.90;69.10
59309;DHT22;48433;53.016;-2.260;2023-04-24T13:47:56;13.90;68.50
59309;DHT22;48433;53.016;-2.260;2023-04-24T13:50:24;13.90;68.80
59309;DHT22;48433;53.016;-2.260;2023-04-24T13:52:52;14.00;67.80
59309;DHT22;48433;53.016;-2.260;2023-04-24T13:55:20;14.10;67.50
59309;DHT22;48433;53.016;-2.260;2023-04-24T13:57:48;14.20;69.30
59309;DHT22;48433;53.016;-2.260;2023-04-24T14:00:16;14.40;68.10
59309;DHT22;48433;53.016;-2.260;2023-04-24T14:02:44;14.70;68.20
59309;DHT22;48433;53.016;-2.260;2023-04-24T14:05:13;15.30;65.30
59309;DHT22;48433;53.016;-2.260;2023-04-24T14:07:42;15.40;65.70
59309;DHT22;48433;53.016;-2.260;2023-04-24T14:10:10;15.60;63.70
59309;DHT22;48433;53.016;-2.260;2023-04-24T14:12:37;15.50;64.20
59309;DHT22;48433;53.016;-2.260;2023-04-24T14:15:06;15.10;63.40
59309;DHT22;48433;53.016;-2.260;2023-04-24T14:17:33;15.00;64.20
59309;DHT22;48433;53.016;-2.260;2023-04-24T14:20:01;14.70;64.30
59309;DHT22;48433;53.016;-2.260;2023-04-24T14:22:30;14.30;64.80
59309;DHT22;48433;53.016;-2.260;2023-04-24T14:24:58;13.70;64.80
59309;DHT22;48433;53.016;-2.260;2023-04-24T14:27:26;13.60;65.50
59309;DHT22;48433;53.016;-2.260;2023-04-24T14:29:53;13.40;65.90
59309;DHT22;48433;53.016;-2.260;2023-04-24T14:32:22;13.10;65.90
59309;DHT22;48433;53.016;-2.260;2023-04-24T14:34:49;12.80;65.60
59309;DHT22;48433;53.016;-2.260;2023-04-24T14:37:17;12.80;66.40
59309;DHT22;48433;53.016;-2.260;2023-04-24T14:39:45;12.70;66.80
59309;DHT22;48433;53.016;-2.260;2023-04-24T14:42:27;12.60;67.40
59309;DHT22;48433;53.016;-2.260;2023-04-24T14:44:56;12.60;67.40
59309;DHT22;48433;53.016;-2.260;2023-04-24T14:47:24;12.60;68.10
59309;DHT22;48433;53.016;-2.260;2023-04-24T14:49:53;12.60;68.80
59309;DHT22;48433;53.016;-2.260;2023-04-24T14:52:21;12.60;70.10
59309;DHT22;48433;53.016;-2.260;2023-04-24T14:54:48;12.50;71.10
59309;DHT22;48433;53.016;-2.260;2023-04-24T14:57:16;12.50;71.80
59309;DHT22;48433;53.016;-2.260;2023-04-24T14:59:43;12.60;72.40
59309;DHT22;48433;53.016;-2.260;2023-04-24T15:02:11;12.50;72.40
59309;DHT22;48433;53.016;-2.260;2023-04-24T15:04:43;12.40;72.30
59309;DHT22;48433;53.016;-2.260;2023-04-24T15:07:11;12.40;73.00
59309;DHT22;48433;53.016;-2.260;2023-04-24T15:09:39;12.40;73.20
59309;DHT22;48433;53.016;-2.260;2023-04-24T15:12:07;12.30;73.40
59309;DHT22;48433;53.016;-2.260;2023-04-24T15:14:35;12.20;73.00
59309;DHT22;48433;53.016;-2.260;2023-04-24T15:17:02;12.20;73.60
59309;DHT22;48433;53.016;-2.260;2023-04-24T15:19:31;12.20;74.10
59309;DHT22;48433;53.016;-2.260;2023-04-24T15:21:58;12.10;74.40
59309;DHT22;48433;53.016;-2.260;2023-04-24T15:24:26;12.20;73.80
59309;DHT22;48433;53.016;-2.260;2023-04-24T15:26:54;12.10;74.30
59309;DHT22;48433;53.016;-2.260;2023-04-24T15:29:25;12.20;74.00
59309;DHT22;48433;53.016;-2.260;2023-04-24T15:31:54;12.20;73.70
59309;DHT22;48433;53.016;-2.260;2023-04-24T15:34:22;12.30;73.10
59309;DHT22;48433;53.016;-2.260;2023-04-24T15:36:49;12.20;72.10
59309;DHT22;48433;53.016;-2.260;2023-04-24T15:39:17;12.30;72.70
59309;DHT22;48433;53.016;-2.260;2023-04-24T15:41:45;12.30;72.60
59309;DHT22;48433;53.016;-2.260;2023-04-24T15:44:12;12.30;72.30
59309;DHT22;48433;53.016;-2.260;2023-04-24T15:46:40;12.30;71.40
59309;DHT22;48433;53.016;-2.260;2023-04-24T15:49:08;12.40;71.50
59309;DHT22;48433;53.016;-2.260;2023-04-24T15:51:35;12.40;71.50
59309;DHT22;48433;53.016;-2.260;2023-04-24T15:54:03;12.40;71.30
59309;DHT22;48433;53.016;-2.260;2023-04-24T15:56:30;12.30;71.50
59309;DHT22;48433;53.016;-2.260;2023-04-24T15:58:58;12.20;73.20
59309;DHT22;48433;53.016;-2.260;2023-04-24T16:01:27;12.00;74.50